Time;durP1;ratioP1;P1;durP2;ratioP2;P2;SDS_P1;SDS_P2;PMS_P1;PMS_P2;Temp;Humidity;BMP_temperature;BMP_pressure;BME280_temperature;BME280_humidity;BME280_pressure;Samples;Min_cycle;Max_cycle;Signal;HPM_P1;HPM_P2
2021/05/30 00:01:05;;;;;;;;;;;;;;;20.22;65.11;100741.47;5006449;28;1083;-44
2021/05/30 00:03:32;;;;;;;;;;;;;;;20.15;63.93;100727.75;5009099;28;1775;-44
2021/05/30 00:05:58;;;;;;;;;;;;;;;20.19;65.25;100742.63;5001330;28;1701;-44
2021/05/30 00:08:24;;;;;;;;;;;;;;;20.18;63.32;100738.22;5006379;28;1667;-45
2021/05/30 00:10:50;;;;;;;;;;;;;;;20.15;64.22;100749.25;5001492;28;1822;-45
2021/05/30 00:13:18;;;;;;;;;;;;;;;20.17;64.30;100741.88;5002458;28;1902;-45
2021/05/30 00:15:45;;;;;;;;;;;;;;;20.16;64.04;100734.00;5014219;28;2082;-44
2021/05/30 00:18:11;;;;;;;;;;;;;;;20.14;62.92;100720.72;5010625;28;1646;-44
2021/05/30 00:20:37;;;;;;;;;;;;;;;20.17;63.52;100736.53;5003198;28;1738;-44
2021/05/30 00:23:03;;;;;;;;;;;;;;;20.16;63.18;100717.88;5006404;28;1409;-44
2021/05/30 00:25:29;;;;;;;;;;;;;;;20.14;63.75;100728.78;5008340;28;1583;-44
2021/05/30 00:27:55;;;;;;;;;;;;;;;20.17;64.11;100735.69;5004504;28;1570;-45
2021/05/30 00:30:22;;;;;;;;;;;;;;;20.19;64.19;100739.06;5008692;28;1836;-45
2021/05/30 00:32:48;;;;;;;;;;;;;;;20.21;64.64;100732.59;5013693;28;1993;-44
2021/05/30 00:35:14;;;;;;;;;;;;;;;20.20;63.84;100735.41;5005381;28;1745;-44
2021/05/30 00:37:40;;;;;;;;;;;;;;;20.19;63.81;100734.56;5012530;28;1643;-45
2021/05/30 00:40:07;;;;;;;;;;;;;;;20.22;63.90;100739.63;5005667;28;1500;-44
2021/05/30 00:42:33;;;;;;;;;;;;;;;20.19;64.21;100734.56;5005729;28;1682;-44
2021/05/30 00:44:59;;;;;;;;;;;;;;;20.19;63.87;100722.97;5005973;28;1008;-44
2021/05/30 00:47:26;;;;;;;;;;;;;;;20.18;63.65;100722.13;5012405;28;1734;-44
2021/05/30 00:49:52;;;;;;;;;;;;;;;20.15;64.18;100722.38;5004578;28;1484;-44
2021/05/30 00:52:18;;;;;;;;;;;;;;;20.17;63.57;100714.19;5010549;28;1401;-45
2021/05/30 00:54:44;;;;;;;;;;;;;;;20.15;64.31;100724.25;5004800;28;1902;-45
2021/05/30 00:57:10;;;;;;;;;;;;;;;20.13;64.44;100712.78;5005613;28;1820;-44
2021/05/30 00:59:37;;;;;;;;;;;;;;;20.15;63.84;100719.72;5004531;28;1752;-45
2021/05/30 01:02:03;;;;;;;;;;;;;;;20.19;64.34;100718.47;5000234;28;1812;-44
2021/05/30 01:04:30;;;;;;;;;;;;;;;20.21;65.93;100720.97;5005469;28;1612;-44
2021/05/30 01:06:58;;;;;;;;;;;;;;;20.24;64.92;100721.53;5004768;28;1726;-44
2021/05/30 01:09:25;;;;;;;;;;;;;;;20.24;64.80;100728.75;5011565;28;1487;-44
2021/05/30 01:11:51;;;;;;;;;;;;;;;20.20;65.17;100735.41;5008368;28;1744;-45
2021/05/30 01:14:17;;;;;;;;;;;;;;;20.19;64.02;100722.97;5008912;28;1910;-44
2021/05/30 01:16:44;;;;;;;;;;;;;;;20.16;64.16;100729.47;5013806;28;1419;-45
2021/05/30 01:19:11;;;;;;;;;;;;;;;20.19;64.11;100717.59;5011688;28;1128;-44
2021/05/30 01:21:38;;;;;;;;;;;;;;;20.15;64.30;100714.34;5009791;28;1410;-44
2021/05/30 01:24:05;;;;;;;;;;;;;;;20.18;63.58;100721.28;5009700;28;1269;-44
2021/05/30 01:26:31;;;;;;;;;;;;;;;20.17;64.28;100727.63;5011618;28;1448;-44
2021/05/30 01:28:57;;;;;;;;;;;;;;;20.15;64.56;100717.03;5003914;28;1224;-44
2021/05/30 01:31:23;;;;;;;;;;;;;;;20.10;64.53;100711.25;5011747;28;2070;-44
2021/05/30 01:33:50;;;;;;;;;;;;;;;20.09;63.62;100706.88;5006883;28;1993;-45
2021/05/30 01:36:16;;;;;;;;;;;;;;;20.12;64.35;100713.81;5001375;28;1690;-44
2021/05/30 01:38:42;;;;;;;;;;;;;;;20.12;64.16;100717.31;5005641;28;1612;-45
2021/05/30 01:41:09;;;;;;;;;;;;;;;20.13;64.67;100712.78;5006775;28;1716;-44
2021/05/30 01:43:34;;;;;;;;;;;;;;;20.15;63.50;100725.06;5010693;28;1632;-44
2021/05/30 01:46:01;;;;;;;;;;;;;;;20.14;64.50;100719.88;5008196;28;1143;-44
2021/05/30 01:48:27;;;;;;;;;;;;;;;20.12;63.24;100706.59;5006672;28;1955;-44
2021/05/30 01:50:53;;;;;;;;;;;;;;;20.14;63.38;100704.59;5007480;28;1604;-44
2021/05/30 01:53:20;;;;;;;;;;;;;;;20.14;63.92;100714.50;5005718;28;2007;-44
2021/05/30 01:56:54;;;;;;;;;;;;;;;20.16;64.50;100707.16;5001209;28;1670;-45
2021/05/30 01:58:43;;;;;;;;;;;;;;;20.15;64.94;100716.19;5005270;28;1733;-44
2021/05/30 02:01:10;;;;;;;;;;;;;;;20.15;63.94;100706.28;5011142;23;3721;-83
2021/05/30 02:03:37;;;;;;;;;;;;;;;20.16;63.86;100712.53;4979247;28;1186;-83
2021/05/30 02:06:03;;;;;;;;;;;;;;;20.15;64.89;100706.28;4976861;28;1821;-82
2021/05/30 02:08:31;;;;;;;;;;;;;;;20.10;64.28;100708.56;4977855;28;1358;-84
2021/05/30 02:10:58;;;;;;;;;;;;;;;20.08;63.58;100715.91;4977138;28;1496;-83
2021/05/30 02:13:25;;;;;;;;;;;;;;;20.14;63.37;100709.97;4979943;28;1911;-83
2021/05/30 02:15:54;;;;;;;;;;;;;;;20.11;63.59;100721.00;4979147;28;1469;-83
2021/05/30 02:18:22;;;;;;;;;;;;;;;20.12;63.78;100719.19;4977957;28;1458;-81
2021/05/30 02:20:48;;;;;;;;;;;;;;;20.13;64.41;100702.06;4979392;28;1671;-83
2021/05/30 02:23:15;;;;;;;;;;;;;;;20.13;64.50;100724.38;4978376;28;1787;-83
2021/05/30 02:25:41;;;;;;;;;;;;;;;20.11;64.52;100707.56;4977912;28;1751;-82
2021/05/30 02:28:08;;;;;;;;;;;;;;;20.08;64.28;100720.44;4978466;28;1478;-81
2021/05/30 02:30:34;;;;;;;;;;;;;;;20.07;63.89;100711.53;4996225;28;877;-83
2021/05/30 02:33:03;;;;;;;;;;;;;;;20.11;64.53;100715.63;4994732;28;1906;-82
2021/05/30 02:35:30;;;;;;;;;;;;;;;20.12;64.29;100728.06;4993760;28;1297;-83
2021/05/30 02:37:56;;;;;;;;;;;;;;;20.10;64.18;100722.00;4981136;28;1244;-83
2021/05/30 02:40:22;;;;;;;;;;;;;;;20.11;63.71;100731.72;4975783;28;1443;-84
2021/05/30 02:42:48;;;;;;;;;;;;;;;20.12;65.08;100736.13;4970669;28;1544;-83
2021/05/30 02:45:14;;;;;;;;;;;;;;;20.12;64.09;100744.16;4999206;28;1365;-82
2021/05/30 02:47:40;;;;;;;;;;;;;;;20.08;65.18;100723.97;4979448;28;1668;-83
2021/05/30 02:50:08;;;;;;;;;;;;;;;20.11;64.36;100709.41;4976471;28;1236;-83
2021/05/30 02:52:34;;;;;;;;;;;;;;;20.08;64.68;100726.66;4974416;28;1620;-83
2021/05/30 02:55:01;;;;;;;;;;;;;;;20.09;62.85;100719.44;4978182;28;1969;-82
2021/05/30 02:57:28;;;;;;;;;;;;;;;20.05;63.61;100719.75;4983530;28;1267;-82
2021/05/30 02:59:54;;;;;;;;;;;;;;;20.10;64.40;100719.31;4979421;28;1501;-83
2021/05/30 03:02:20;;;;;;;;;;;;;;;20.10;64.12;100727.38;4978530;28;1457;-83
2021/05/30 03:04:46;;;;;;;;;;;;;;;20.08;63.75;100726.66;4989364;28;1385;-83
2021/05/30 03:07:13;;;;;;;;;;;;;;;20.08;64.34;100734.72;4996652;28;1551;-82
2021/05/30 03:09:39;;;;;;;;;;;;;;;20.12;64.69;100737.97;4990283;28;1102;-83
2021/05/30 03:12:07;;;;;;;;;;;;;;;20.09;63.28;100730.19;4992581;28;1746;-82
2021/05/30 03:14:33;;;;;;;;;;;;;;;20.09;64.36;100736.41;4978797;28;1935;-82
2021/05/30 03:16:59;;;;;;;;;;;;;;;20.10;62.41;100730.03;4978184;28;1790;-83
2021/05/30 03:19:25;;;;;;;;;;;;;;;20.09;62.35;100732.88;4958477;28;1748;-82
2021/05/30 03:21:52;;;;;;;;;;;;;;;20.09;62.21;100727.50;4982358;28;1532;-83
2021/05/30 03:24:19;;;;;;;;;;;;;;;20.11;61.89;100728.19;4977728;28;1375;-83
2021/05/30 03:26:46;;;;;;;;;;;;;;;20.10;62.64;100734.56;4977154;28;1620;-83
2021/05/30 03:29:12;;;;;;;;;;;;;;;20.10;62.21;100730.03;4981707;28;1838;-82
2021/05/30 03:31:38;;;;;;;;;;;;;;;20.08;61.98;100713.25;4978032;28;1101;-84
2021/05/30 03:34:04;;;;;;;;;;;;;;;20.10;62.33;100727.38;4976311;28;1879;-83
2021/05/30 03:36:31;;;;;;;;;;;;;;;20.12;61.83;100733.44;4971133;28;1759;-83
2021/05/30 03:39:01;;;;;;;;;;;;;;;20.11;61.96;100729.03;4972741;28;1662;-83
2021/05/30 03:41:32;;;;;;;;;;;;;;;20.14;61.75;100744.88;4986268;28;1667;-82
2021/05/30 03:43:58;;;;;;;;;;;;;;;20.18;61.44;100738.22;4987165;28;1565;-82
2021/05/30 03:46:24;;;;;;;;;;;;;;;20.22;63.17;100731.56;4973329;28;1600;-82
2021/05/30 03:48:51;;;;;;;;;;;;;;;20.23;61.60;100730.59;4979311;28;1835;-84
2021/05/30 03:51:18;;;;;;;;;;;;;;;20.23;61.18;100725.22;4982239;28;1449;-83
2021/05/30 03:53:44;;;;;;;;;;;;;;;20.25;61.27;100717.88;4978423;28;1907;-83
2021/05/30 03:56:10;;;;;;;;;;;;;;;20.29;60.69;100723.78;4981726;28;1446;-82
2021/05/30 03:58:36;;;;;;;;;;;;;;;20.32;61.96;100731.56;4985208;28;1418;-84
2021/05/30 04:01:02;;;;;;;;;;;;;;;20.33;61.45;100727.03;4987642;28;1375;-84
2021/05/30 04:03:28;;;;;;;;;;;;;;;20.26;61.36;100730.28;4988362;28;1481;-84
2021/05/30 04:05:54;;;;;;;;;;;;;;;20.27;60.63;100721.25;4985265;28;1556;-82
2021/05/30 04:08:22;;;;;;;;;;;;;;;20.27;61.25;100737.38;4999063;28;1458;-85
2021/05/30 04:10:48;;;;;;;;;;;;;;;20.33;60.31;100732.41;4991952;28;1660;-83
2021/05/30 04:13:16;;;;;;;;;;;;;;;20.35;60.98;100722.34;4986344;28;1986;-83
2021/05/30 04:15:50;;;;;;;;;;;;;;;20.34;60.23;100726.03;4984618;28;1393;-85
2021/05/30 04:18:16;;;;;;;;;;;;;;;20.38;60.41;100735.50;4991350;28;1441;-81
2021/05/30 04:20:42;;;;;;;;;;;;;;;20.35;60.63;100727.72;4994485;28;1461;-82
2021/05/30 04:23:11;;;;;;;;;;;;;;;20.32;60.91;100730.72;4993458;28;1446;-83
2021/05/30 04:25:37;;;;;;;;;;;;;;;20.29;60.73;100725.63;4987448;28;1626;-83
2021/05/30 04:28:03;;;;;;;;;;;;;;;20.26;61.53;100724.91;4982685;28;1657;-84
2021/05/30 04:30:29;;;;;;;;;;;;;;;20.31;62.10;100726.31;4979574;28;1355;-83
2021/05/30 04:32:56;;;;;;;;;;;;;;;20.29;61.53;100739.88;4997943;23;3659;-46
2021/05/30 04:35:26;;;;;;;;;;;;;;;20.29;61.32;100720.25;4990511;28;1961;-46
2021/05/30 04:38:01;;;;;;;;;;;;;;;20.24;61.13;100732.28;4992606;28;1459;-44
2021/05/30 04:40:31;;;;;;;;;;;;;;;20.28;61.32;100727.47;4994335;28;1506;-43
2021/05/30 04:43:01;;;;;;;;;;;;;;;20.30;61.38;100728.16;4993315;28;1516;-44
2021/05/30 04:45:27;;;;;;;;;;;;;;;20.35;61.51;100733.09;4993892;28;1502;-44
2021/05/30 04:47:56;;;;;;;;;;;;;;;20.35;60.82;100731.28;4992687;28;1592;-44
2021/05/30 04:50:26;;;;;;;;;;;;;;;20.37;60.77;100739.16;4992452;28;1851;-45
2021/05/30 04:52:56;;;;;;;;;;;;;;;20.40;60.19;100736.22;4993761;28;1972;-44
2021/05/30 04:55:25;;;;;;;;;;;;;;;20.47;60.32;100742.66;4994088;28;1551;-44
2021/05/30 04:57:51;;;;;;;;;;;;;;;20.43;60.38;100731.41;4992731;28;1547;-44
2021/05/30 05:00:20;;;;;;;;;;;;;;;20.42;59.84;100731.53;4994696;28;1290;-44
2021/05/30 05:02:47;;;;;;;;;;;;;;;20.39;60.01;100732.69;4993471;28;1444;-44
2021/05/30 05:05:15;;;;;;;;;;;;;;;20.37;59.29;100725.75;4983446;28;1629;-44
2021/05/30 05:07:49;;;;;;;;;;;;;;;20.37;58.34;100726.59;4990578;28;1955;-44
2021/05/30 05:10:16;;;;;;;;;;;;;;;20.34;58.30;100732.25;4993053;28;1607;-44
2021/05/30 05:12:44;;;;;;;;;;;;;;;20.33;58.72;100727.03;4985860;28;1434;-44
2021/05/30 05:15:32;;;;;;;;;;;;;;;20.33;59.70;100718.97;4981245;28;1942;-44
2021/05/30 05:17:58;;;;;;;;;;;;;;;20.31;59.37;100737.06;4985870;28;1414;-44
2021/05/30 05:20:24;;;;;;;;;;;;;;;20.27;58.72;100729.31;4990719;28;1460;-44
2021/05/30 05:22:50;;;;;;;;;;;;;;;20.24;59.68;100726.91;4989210;28;1655;-46
2021/05/30 05:25:16;;;;;;;;;;;;;;;20.26;59.59;100732.97;4992915;28;1403;-44
2021/05/30 05:27:44;;;;;;;;;;;;;;;20.29;59.59;100734.53;4988739;28;2657;-45
2021/05/30 05:30:10;;;;;;;;;;;;;;;20.32;58.81;100728.03;4977257;28;1247;-45
2021/05/30 05:32:36;;;;;;;;;;;;;;;20.34;59.72;100734.94;4989734;28;2906;-46
2021/05/30 05:35:02;;;;;;;;;;;;;;;20.35;59.78;100730.41;4991239;28;1945;-43
2021/05/30 05:37:28;;;;;;;;;;;;;;;20.40;59.99;100741.56;4988859;28;1592;-45
2021/05/30 05:40:07;;;;;;;;;;;;;;;20.36;60.32;100721.38;4992784;28;1422;-43
2021/05/30 05:42:35;;;;;;;;;;;;;;;20.37;60.61;100731.13;4986166;28;1494;-44
2021/05/30 05:45:04;;;;;;;;;;;;;;;20.35;61.41;100739.34;4993606;28;1230;-44
2021/05/30 05:47:33;;;;;;;;;;;;;;;20.39;61.56;100745.25;4993519;28;1427;-44
2021/05/30 05:50:02;;;;;;;;;;;;;;;20.41;60.74;100743.25;4993344;28;1859;-43
2021/05/30 05:52:28;;;;;;;;;;;;;;;20.40;60.75;100744.25;4991068;28;1681;-42
2021/05/30 05:55:15;;;;;;;;;;;;;;;20.39;61.05;100740.75;4988903;28;1968;-43
2021/05/30 05:57:43;;;;;;;;;;;;;;;20.40;60.68;100747.78;4991247;28;1590;-44
2021/05/30 06:00:11;;;;;;;;;;;;;;;20.40;60.91;100744.25;4993993;28;1326;-43
2021/05/30 06:02:38;;;;;;;;;;;;;;;20.39;61.58;100740.75;4992899;28;1560;-45
2021/05/30 06:05:05;;;;;;;;;;;;;;;20.41;61.22;100754.00;4994029;28;1439;-43
2021/05/30 06:07:31;;;;;;;;;;;;;;;20.36;60.79;100749.06;4995593;28;1493;-44
2021/05/30 06:09:58;;;;;;;;;;;;;;;20.38;61.36;100746.25;4994209;28;1695;-44
2021/05/30 06:12:24;;;;;;;;;;;;;;;20.39;60.88;100746.13;4987911;28;1700;-45
2021/05/30 06:14:50;;;;;;;;;;;;;;;20.39;61.13;100735.38;4983279;28;1972;-43
2021/05/30 06:17:16;;;;;;;;;;;;;;;20.39;61.95;100748.78;4993871;28;1921;-44
2021/05/30 06:19:42;;;;;;;;;;;;;;;20.39;61.27;100740.75;4990723;28;1742;-43
2021/05/30 06:22:08;;;;;;;;;;;;;;;20.42;61.19;100750.34;4987110;28;1548;-44
2021/05/30 06:24:35;;;;;;;;;;;;;;;20.40;61.66;100746.94;4989385;28;1467;-44
2021/05/30 06:27:02;;;;;;;;;;;;;;;20.41;62.27;100754.88;4991441;28;1553;-44
2021/05/30 06:29:28;;;;;;;;;;;;;;;20.41;61.62;100743.25;4992169;28;1706;-43
2021/05/30 06:31:55;;;;;;;;;;;;;;;20.40;61.29;100744.25;4989073;28;1536;-44
2021/05/30 06:34:21;;;;;;;;;;;;;;;20.43;61.62;100755.56;4991110;28;1902;-43
2021/05/30 06:36:49;;;;;;;;;;;;;;;20.44;62.57;100756.41;4991252;28;1803;-42
2021/05/30 06:39:15;;;;;;;;;;;;;;;20.42;61.24;100750.34;4987590;28;1694;-44
2021/05/30 06:41:41;;;;;;;;;;;;;;;20.44;62.06;100748.34;4984162;28;1506;-43
2021/05/30 06:44:08;;;;;;;;;;;;;;;20.46;62.21;100751.75;4983981;28;1840;-44
2021/05/30 06:46:34;;;;;;;;;;;;;;;20.52;62.62;100753.00;4992525;28;1479;-43
2021/05/30 06:49:00;;;;;;;;;;;;;;;20.52;62.25;100772.66;4981924;28;2193;-43
2021/05/30 06:51:30;;;;;;;;;;;;;;;20.52;62.51;100767.28;4979270;28;1987;-43
2021/05/30 06:53:57;;;;;;;;;;;;;;;20.50;61.79;100758.50;4981012;28;1910;-48
2021/05/30 06:56:23;;;;;;;;;;;;;;;20.49;61.74;100762.19;4986826;28;2737;-46
2021/05/30 06:58:49;;;;;;;;;;;;;;;20.50;62.00;100768.41;4984654;28;2109;-46
2021/05/30 07:01:18;;;;;;;;;;;;;;;20.48;60.54;100768.56;4987703;28;2076;-44
2021/05/30 07:03:44;;;;;;;;;;;;;;;20.50;61.13;100769.25;4989107;28;2034;-43
2021/05/30 07:06:10;;;;;;;;;;;;;;;20.52;59.95;100772.66;4989854;28;1549;-44
2021/05/30 07:08:36;;;;;;;;;;;;;;;20.51;60.01;100780.84;4990870;28;1729;-44
2021/05/30 07:11:02;;;;;;;;;;;;;;;20.48;59.64;100786.53;4991773;28;2133;-43
2021/05/30 07:13:28;;;;;;;;;;;;;;;20.53;60.50;100784.22;4994982;28;1978;-44
2021/05/30 07:15:54;;;;;;;;;;;;;;;20.54;60.57;100794.84;4982937;28;1822;-43
2021/05/30 07:18:21;;;;;;;;;;;;;;;20.52;60.11;100786.06;4985827;28;1640;-43
2021/05/30 07:20:52;;;;;;;;;;;;;;;20.51;60.66;100787.06;4988076;28;1836;-43
2021/05/30 07:23:19;;;;;;;;;;;;;;;20.52;61.13;100802.19;4992052;28;1876;-43
2021/05/30 07:25:45;;;;;;;;;;;;;;;20.50;61.04;100812.25;4998896;28;1621;-43
2021/05/30 07:28:11;;;;;;;;;;;;;;;20.50;60.57;100788.06;4989585;28;1751;-44
2021/05/30 07:30:37;;;;;;;;;;;;;;;20.50;60.15;100790.75;4984260;28;1526;-44
2021/05/30 07:33:04;;;;;;;;;;;;;;;20.49;60.34;100789.03;4992040;28;1957;-44
2021/05/30 07:35:31;;;;;;;;;;;;;;;20.53;60.46;100789.59;4990073;28;1966;-44
2021/05/30 07:37:57;;;;;;;;;;;;;;;20.50;60.86;100785.38;4992279;28;1510;-43
2021/05/30 07:40:23;;;;;;;;;;;;;;;20.54;60.27;100788.63;4988648;28;1705;-44
2021/05/30 07:42:49;;;;;;;;;;;;;;;20.55;61.50;100793.84;4990637;28;1614;-44
2021/05/30 07:45:17;;;;;;;;;;;;;;;20.58;60.94;100787.34;4990046;28;2017;-43
2021/05/30 07:47:44;;;;;;;;;;;;;;;20.58;61.73;100792.72;4991006;28;1564;-44
2021/05/30 07:50:10;;;;;;;;;;;;;;;20.61;62.38;100793.31;4990002;28;2057;-43
2021/05/30 07:52:37;;;;;;;;;;;;;;;20.66;61.50;100796.38;4989466;28;1564;-43
2021/05/30 07:55:04;;;;;;;;;;;;;;;20.66;61.82;100788.31;4991565;28;1906;-43
2021/05/30 07:57:30;;;;;;;;;;;;;;;20.62;61.76;100821.84;4992073;28;3352;-43
2021/05/30 07:59:57;;;;;;;;;;;;;;;20.63;62.03;100818.19;4981130;28;1501;-44
2021/05/30 08:02:23;;;;;;;;;;;;;;;20.64;62.74;100809.13;4990131;28;1706;-44
2021/05/30 08:04:50;;;;;;;;;;;;;;;20.64;61.85;100821.72;4990963;28;1690;-44
2021/05/30 08:07:16;;;;;;;;;;;;;;;20.74;61.82;100802.88;4990925;28;1955;-44
2021/05/30 08:09:45;;;;;;;;;;;;;;;20.72;62.85;100811.09;4992180;28;1800;-44
2021/05/30 08:12:17;;;;;;;;;;;;;;;20.68;62.13;100825.81;4990520;28;2792;-46
2021/05/30 08:14:44;;;;;;;;;;;;;;;20.77;62.67;100818.69;5000364;28;1906;-47
2021/05/30 08:17:16;;;;;;;;;;;;;;;20.77;62.08;100832.13;4982195;28;1529;-46
2021/05/30 08:19:43;;;;;;;;;;;;;;;20.77;62.99;100827.63;4990030;28;1697;-46
2021/05/30 08:22:11;;;;;;;;;;;;;;;20.81;63.15;100822.78;4993363;28;1601;-47
2021/05/30 08:27:19;;;;;;;;;;;;;;;20.81;62.95;100836.22;4998299;28;1595;-47
2021/05/30 08:29:45;;;;;;;;;;;;;;;20.78;63.12;100853.50;4991759;28;1698;-47
2021/05/30 08:32:15;;;;;;;;;;;;;;;20.79;62.92;100833.72;4988279;28;2174;-47
2021/05/30 08:34:44;;;;;;;;;;;;;;;20.80;62.86;100853.38;4980161;28;1977;-47
2021/05/30 08:40:10;;;;;;;;;;;;;;;20.82;63.93;100843.31;4998839;28;1711;-47
2021/05/30 08:42:41;;;;;;;;;;;;;;;20.91;64.13;100837.06;4991126;28;1615;-46
2021/05/30 08:45:12;;;;;;;;;;;;;;;20.93;62.91;100824.34;4993772;28;1566;-49
2021/05/30 08:47:38;;;;;;;;;;;;;;;20.93;61.56;100832.41;4993759;28;2019;-47
2021/05/30 08:50:10;;;;;;;;;;;;;;;20.96;61.49;100823.19;4990549;28;1839;-47
2021/05/30 08:52:38;;;;;;;;;;;;;;;20.96;61.84;100824.03;4992474;28;2142;-47
2021/05/30 08:55:07;;;;;;;;;;;;;;;20.96;62.30;100824.03;4983307;28;1903;-47
2021/05/30 08:57:34;;;;;;;;;;;;;;;20.99;62.73;100833.63;4995631;28;2038;-47
2021/05/30 09:00:14;;;;;;;;;;;;;;;21.00;61.83;100836.16;4995055;28;1636;-44
2021/05/30 09:02:41;;;;;;;;;;;;;;;21.04;63.67;100848.31;4983995;28;1572;-44
2021/05/30 09:05:08;;;;;;;;;;;;;;;21.02;63.55;100844.94;4997296;28;1596;-45
2021/05/30 09:07:39;;;;;;;;;;;;;;;21.02;63.34;100854.84;4996942;28;1501;-45
2021/05/30 09:10:09;;;;;;;;;;;;;;;21.00;63.54;100841.53;4994686;28;1140;-45
2021/05/30 09:12:38;;;;;;;;;;;;;;;21.03;63.10;100825.13;4996055;28;1487;-44
2021/05/30 09:15:13;;;;;;;;;;;;;;;21.14;64.09;100842.91;4994289;28;1961;-46
2021/05/30 09:17:39;;;;;;;;;;;;;;;21.06;64.07;100845.50;5002320;28;1607;-47
2021/05/30 09:20:08;;;;;;;;;;;;;;;21.02;65.04;100833.34;4993095;28;1557;-46
2021/05/30 09:22:37;;;;;;;;;;;;;;;21.00;65.03;100841.53;4988805;28;1410;-44
2021/05/30 09:25:24;;;;;;;;;;;;;;;21.00;62.85;100840.72;4990249;28;1537;-44
2021/05/30 09:27:52;;;;;;;;;;;;;;;20.94;61.28;100839.44;4991203;28;1694;-45
2021/05/30 09:30:21;;;;;;;;;;;;;;;20.98;63.78;100821.19;4988856;28;1518;-44
2021/05/30 09:33:08;;;;;;;;;;;;;;;21.00;62.52;100833.47;4997558;28;1622;-45
2021/05/30 09:35:44;;;;;;;;;;;;;;;20.99;60.70;100817.50;4985376;28;2240;-45
2021/05/30 09:38:12;;;;;;;;;;;;;;;20.94;60.54;100831.38;4986609;28;1740;-45
2021/05/30 09:40:40;;;;;;;;;;;;;;;20.88;60.00;100831.97;4987550;28;1060;-45
2021/05/30 09:43:08;;;;;;;;;;;;;;;20.89;60.28;100840.88;4985880;28;1918;-45
2021/05/30 09:45:35;;;;;;;;;;;;;;;20.87;60.42;100819.53;4986185;28;1914;-45
2021/05/30 09:48:01;;;;;;;;;;;;;;;20.85;60.91;100817.00;4984653;28;1964;-45
2021/05/30 09:50:32;;;;;;;;;;;;;;;20.96;61.63;100812.44;4986758;28;1691;-45
2021/05/30 09:53:00;;;;;;;;;;;;;;;20.91;58.87;100812.00;4984249;28;1615;-44
2021/05/30 09:55:27;;;;;;;;;;;;;;;20.97;60.71;100819.47;4984546;28;1902;-45
2021/05/30 09:58:14;;;;;;;;;;;;;;;21.04;58.82;100816.06;4984393;28;1803;-45
2021/05/30 10:00:42;;;;;;;;;;;;;;;20.99;59.85;100810.28;4983265;28;2249;-46
2021/05/30 10:03:08;;;;;;;;;;;;;;;21.01;57.40;100800.25;4989234;28;1855;-46
2021/05/30 10:05:34;;;;;;;;;;;;;;;20.99;58.03;100806.75;4987691;28;1538;-45
2021/05/30 10:08:00;;;;;;;;;;;;;;;20.96;58.45;100807.88;4986376;28;1696;-46
2021/05/30 10:10:27;;;;;;;;;;;;;;;21.00;59.01;100819.19;5001619;28;1543;-45
2021/05/30 10:12:53;;;;;;;;;;;;;;;21.03;60.24;100798.25;4991099;28;1633;-46
2021/05/30 10:15:19;;;;;;;;;;;;;;;21.01;60.45;100802.94;4988172;28;11740;-45
2021/05/30 10:17:47;;;;;;;;;;;;;;;20.98;58.10;100805.91;5009920;28;2013;-45
2021/05/30 10:20:16;;;;;;;;;;;;;;;20.98;60.28;100797.84;5007858;28;1548;-46
2021/05/30 10:22:43;;;;;;;;;;;;;;;20.99;59.84;100799.53;5011852;28;1578;-45
2021/05/30 10:25:09;;;;;;;;;;;;;;;21.00;59.82;100798.53;5010838;28;1373;-47
2021/05/30 10:27:37;;;;;;;;;;;;;;;21.00;60.62;100793.16;5011650;28;1508;-45
2021/05/30 10:30:17;;;;;;;;;;;;;;;21.00;60.05;100798.53;5011988;28;1806;-45
2021/05/30 10:32:44;;;;;;;;;;;;;;;21.01;59.82;100800.25;5008731;28;1524;-45
2021/05/30 10:35:12;;;;;;;;;;;;;;;21.00;59.90;100820.03;5007283;28;1981;-45
2021/05/30 10:37:43;;;;;;;;;;;;;;;21.01;63.63;100800.25;5013235;28;1678;-45
2021/05/30 10:40:24;;;;;;;;;;;;;;;21.10;63.50;100806.56;5012926;28;1270;-45
2021/05/30 10:43:05;;;;;;;;;;;;;;;21.11;64.09;100823.53;5008240;28;1847;-45
2021/05/30 10:45:31;;;;;;;;;;;;;;;21.06;64.51;100814.06;5004460;28;1686;-45
2021/05/30 10:48:18;;;;;;;;;;;;;;;21.01;64.22;100819.06;5005928;28;1536;-45
2021/05/30 10:50:54;;;;;;;;;;;;;;;21.01;63.94;100804.78;5006593;28;1681;-44
2021/05/30 10:53:31;;;;;;;;;;;;;;;21.01;64.60;100807.47;5008300;28;1590;-46
2021/05/30 10:56:12;;;;;;;;;;;;;;;20.99;63.04;100820.19;5010227;28;1303;-45
2021/05/30 10:58:38;;;;;;;;;;;;;;;21.00;63.40;100808.44;5008552;28;1717;-44
2021/05/30 11:01:04;;;;;;;;;;;;;;;21.03;64.13;100813.53;5008333;28;1564;-44
2021/05/30 11:03:30;;;;;;;;;;;;;;;21.02;64.09;100809.97;5010733;28;1554;-44
2021/05/30 11:05:57;;;;;;;;;;;;;;;21.10;64.71;100803.03;5009927;28;1602;-45
2021/05/30 11:08:42;;;;;;;;;;;;;;;21.10;66.61;100792.28;5007285;28;1613;-44
2021/05/30 11:11:18;;;;;;;;;;;;;;;21.21;66.97;100801.00;5010608;28;1426;-45
2021/05/30 11:13:53;;;;;;;;;;;;;;;21.29;66.60;100797.56;5010550;28;1914;-45
2021/05/30 11:16:20;;;;;;;;;;;;;;;21.22;65.48;100793.78;5010769;28;1531;-45
2021/05/30 11:18:55;;;;;;;;;;;;;;;21.12;65.09;100801.88;5006942;28;1477;-44
2021/05/30 11:21:25;;;;;;;;;;;;;;;21.01;64.65;100789.50;5008447;28;1687;-45
2021/05/30 11:23:51;;;;;;;;;;;;;;;21.00;64.46;100792.31;5008823;28;1558;-45
2021/05/30 11:26:17;;;;;;;;;;;;;;;20.96;65.96;100801.69;5011115;28;1527;-45
2021/05/30 11:28:46;;;;;;;;;;;;;;;20.88;65.82;100794.34;5010474;28;1820;-45
2021/05/30 11:31:12;;;;;;;;;;;;;;;20.90;65.96;100796.88;5006986;28;2762;-47
2021/05/30 11:33:41;;;;;;;;;;;;;;;20.88;66.60;100783.59;5003163;28;2302;-47
2021/05/30 11:36:09;;;;;;;;;;;;;;;20.97;66.28;100792.59;5007068;28;1574;-48
2021/05/30 11:38:39;;;;;;;;;;;;;;;20.91;65.73;100795.88;5008362;28;2267;-47
2021/05/30 11:41:08;;;;;;;;;;;;;;;20.88;65.95;100791.66;5007477;28;2021;-47
2021/05/30 11:43:34;;;;;;;;;;;;;;;20.89;66.78;100795.19;5008292;28;2042;-47
2021/05/30 11:46:09;;;;;;;;;;;;;;;20.89;65.61;100782.59;5009797;28;1548;-48
2021/05/30 11:48:35;;;;;;;;;;;;;;;20.88;66.15;100777.38;5005837;28;2408;-47
2021/05/30 11:51:01;;;;;;;;;;;;;;;20.85;66.27;100776.69;5007128;28;1537;-47
2021/05/30 11:53:28;;;;;;;;;;;;;;;20.86;65.50;100780.19;5005896;28;1574;-47
2021/05/30 11:55:55;;;;;;;;;;;;;;;20.91;66.21;100777.94;5006423;28;1910;-48
2021/05/30 11:58:21;;;;;;;;;;;;;;;20.88;67.21;100775.53;5005779;28;1797;-48
2021/05/30 12:00:47;;;;;;;;;;;;;;;20.92;65.25;100790.38;5009373;28;1584;-47
2021/05/30 12:03:13;;;;;;;;;;;;;;;20.93;67.15;100781.31;5008770;28;1560;-47
2021/05/30 12:05:40;;;;;;;;;;;;;;;20.94;66.10;100784.84;5007304;28;1744;-48
2021/05/30 12:08:13;;;;;;;;;;;;;;;20.96;65.62;100788.22;5005568;28;1551;-48
2021/05/30 12:10:47;;;;;;;;;;;;;;;20.97;66.05;100787.22;5010915;28;1423;-48
2021/05/30 12:13:24;;;;;;;;;;;;;;;20.98;66.38;100789.78;5011800;28;1663;-47
2021/05/30 12:15:50;;;;;;;;;;;;;;;20.99;66.77;100775.34;5009042;28;1906;-48
2021/05/30 12:18:16;;;;;;;;;;;;;;;21.01;67.26;100785.97;5008505;28;1574;-48
2021/05/30 12:20:44;;;;;;;;;;;;;;;20.96;66.97;100764.88;5007483;28;1587;-48
2021/05/30 12:23:10;;;;;;;;;;;;;;;21.01;66.89;100784.09;5012000;28;1583;-47
2021/05/30 12:25:37;;;;;;;;;;;;;;;21.05;66.60;100769.38;5012974;28;2035;-48
2021/05/30 12:28:03;;;;;;;;;;;;;;;21.02;66.57;100782.25;5009233;28;1557;-46
2021/05/30 12:30:30;;;;;;;;;;;;;;;21.03;66.55;100782.13;5008401;28;1481;-48
2021/05/30 12:33:00;;;;;;;;;;;;;;;21.03;66.19;100774.06;5005245;28;1382;-47
2021/05/30 12:35:44;;;;;;;;;;;;;;;21.02;66.16;100776.88;5010366;28;1965;-47
2021/05/30 12:38:10;;;;;;;;;;;;;;;21.05;66.77;100769.38;5009137;28;1610;-47
2021/05/30 12:40:36;;;;;;;;;;;;;;;21.09;67.12;100766.38;5011812;28;1442;-49
2021/05/30 12:43:02;;;;;;;;;;;;;;;21.14;67.15;100753.34;5009213;28;1532;-47
2021/05/30 12:45:30;;;;;;;;;;;;;;;21.13;66.31;100765.06;5012586;28;1548;-46
2021/05/30 12:47:57;;;;;;;;;;;;;;;21.17;67.50;100764.66;5009349;28;1571;-47
2021/05/30 12:50:23;;;;;;;;;;;;;;;21.15;66.35;100757.69;5011371;28;1654;-46
2021/05/30 12:52:50;;;;;;;;;;;;;;;21.11;67.58;100761.69;5007930;28;1679;-46
2021/05/30 12:55:16;;;;;;;;;;;;;;;21.11;67.34;100757.19;5011716;28;1910;-47
2021/05/30 12:57:45;;;;;;;;;;;;;;;21.10;67.58;100760.00;5011784;28;1584;-50